Splendid Ace — 7JXH — position and weather

sailwx.info

Track history (hours):
 
Tides and Currents Weather Stations Pressure Air Temp Water Temp Dewpoint Dewpoint Depression Visibility Wind Speed Wind Dir Waves Ship Positions

Splendid Ace

Last reported at 2017-Nov-23 01:28 UTC. Time now 2017-Nov-23 01:39 UTC.
Position N 53°20' E 007°10'.

Length 198 m; draft 8.9 m.

Type: Cargo ship. MMSI: 431349000.

Date/timePositionNaut miles runAvg speedWind from/ knotsBaromVisibWave heightAir tempDewpointWater temp
2017-Nov-23 01:28N 53°20' E 007°10'0 0.0
2017-Nov-23 00:58N 53°20' E 007°10'0 0.0
2017-Nov-23 00:25N 53°20' E 007°10'0 0.0
2017-Nov-22 23:55N 53°20' E 007°10'0 0.0
2017-Nov-22 23:28N 53°20' E 007°10'0 0.0
2017-Nov-22 22:58N 53°20' E 007°10'0 0.0
2017-Nov-22 22:28N 53°20' E 007°10'0 0.0
2017-Nov-22 21:58N 53°20' E 007°10'0 0.0
2017-Nov-22 21:28N 53°20' E 007°10'0 0.0
2017-Nov-22 20:55N 53°20' E 007°10'0 0.0
2017-Nov-22 20:28N 53°20' E 007°10'0 0.0
2017-Nov-22 19:58N 53°20' E 007°10'0 0.0
2017-Nov-22 19:19N 53°20' E 007°10'  
2017-Nov-20 00:30N 50°23' W 002°56'1 1.5
2017-Nov-20 00:00N 50°22' W 002°56'0 0.9
2017-Nov-19 23:30N 50°22' W 002°56'0 0.9
2017-Nov-19 23:00N 50°22' W 002°57'2 3.5
2017-Nov-19 22:30N 50°23' W 002°55'1 0.8
2017-Nov-19 21:13N 50°24' W 002°55'0 2.0
2017-Nov-19 21:00N 50°24' W 002°56'1 2.0
2017-Nov-19 20:30N 50°23' W 002°58'1 1.9
2017-Nov-19 20:00N 50°23' W 002°59'1 1.8
2017-Nov-19 19:30N 50°23' W 003°00'1 1.6
2017-Nov-19 19:00N 50°22' W 003°01'1 1.5
2017-Nov-19 18:30N 50°22' W 003°02'1 1.2
2017-Nov-19 18:00N 50°21' W 003°03'0 1.0
2017-Nov-19 17:30N 50°21' W 003°03'0 0.7
2017-Nov-19 17:00N 50°21' W 003°04'0 0.5
2017-Nov-19 16:30N 50°21' W 003°04'0 0.5
2017-Nov-19 16:00N 50°20' W 003°03'0 0.7
2017-Nov-19 15:30N 50°20' W 003°03'0 1.0
2017-Nov-19 15:00N 50°20' W 003°02'1 1.4
2017-Nov-19 14:30N 50°21' W 003°01'1 1.8
2017-Nov-19 14:00N 50°21' W 002°59'1 2.1
2017-Nov-19 13:30N 50°21' W 002°58'1 1.8
2017-Nov-19 13:00N 50°22' W 002°57'4 7.4
2017-Nov-19 12:30N 50°21' W 003°03'611.5
2017-Nov-19 12:00N 50°21' W 003°12'612.0
2017-Nov-19 11:30N 50°22' W 003°21'3 6.0
2017-Nov-19 11:00N 50°23' W 003°25'4 7.8
2017-Nov-19 10:30N 50°19' W 003°26'612.2
2017-Nov-19 10:00N 50°13' W 003°27'714.3
2017-Nov-19 09:31N 50°08' W 003°35'917.0
2017-Nov-19 09:01N 50°04' W 003°46'917.1
2017-Nov-19 08:31N 50°00' W 003°58'917.1
2017-Nov-19 08:00N 49°58' W 004°11'917.3
2017-Nov-19 07:30N 49°56' W 004°24'917.4
2017-Nov-19 07:01N 49°53' W 004°37'917.6
2017-Nov-19 06:31N 49°51' W 004°50'918.2
2017-Nov-19 06:00N 49°49' W 005°04'2418.3
2017-Nov-19 04:43N 49°45' W 005°40'418.2
2017-Nov-19 04:29N 49°44' W 005°46'1518.0
2017-Nov-19 03:38N 49°39' W 006°09'317.8
2017-Nov-19 03:28N 49°39' W 006°13'1417.6
2017-Nov-19 02:41N 49°38' W 006°35'1517.3
2017-Nov-19 01:48N 49°39' W 006°58'717.3
2017-Nov-19 01:25N 49°40' W 007°09'1117.1
2017-Nov-19 00:45N 49°41' W 007°26'816.8
2017-Nov-19 00:15N 49°41' W 007°39'516.7
2017-Nov-18 23:58N 49°41' W 007°46'6215.3
2017-Nov-18 19:53N 49°47' W 009°23'1717.0
2017-Nov-18 18:52N 49°48' W 009°49'1117.3
2017-Nov-18 18:14N 49°49' W 010°06'417.4
2017-Nov-18 18:00N 49°49' W 010°12'  
Track history (hours):
 
Tides and Currents Weather Stations Pressure Air Temp Water Temp Dewpoint Dewpoint Depression Visibility Wind Speed Wind Dir Waves Ship Positions

Splendid Ace

Last reported at 2017-Nov-23 01:28 UTC. Time now 2017-Nov-23 01:39 UTC.
Position N 53°20' E 007°10'.

Length 198 m; draft 8.9 m.

Type: Cargo ship. MMSI: 431349000.

Date/timePositionNaut miles runAvg speedWind from/ knotsBaromVisibWave heightAir tempDewpointWater temp
2017-Nov-23 01:28N 53°20' E 007°10'0 0.0
2017-Nov-23 00:58N 53°20' E 007°10'0 0.0
2017-Nov-23 00:25N 53°20' E 007°10'0 0.0
2017-Nov-22 23:55N 53°20' E 007°10'0 0.0
2017-Nov-22 23:28N 53°20' E 007°10'0 0.0
2017-Nov-22 22:58N 53°20' E 007°10'0 0.0
2017-Nov-22 22:28N 53°20' E 007°10'0 0.0
2017-Nov-22 21:58N 53°20' E 007°10'0 0.0
2017-Nov-22 21:28N 53°20' E 007°10'0 0.0
2017-Nov-22 20:55N 53°20' E 007°10'0 0.0
2017-Nov-22 20:28N 53°20' E 007°10'0 0.0
2017-Nov-22 19:58N 53°20' E 007°10'0 0.0
2017-Nov-22 19:19N 53°20' E 007°10'  
2017-Nov-20 00:30N 50°23' W 002°56'1 1.5
2017-Nov-20 00:00N 50°22' W 002°56'0 0.9
2017-Nov-19 23:30N 50°22' W 002°56'0 0.9
2017-Nov-19 23:00N 50°22' W 002°57'2 3.5
2017-Nov-19 22:30N 50°23' W 002°55'1 0.8
2017-Nov-19 21:13N 50°24' W 002°55'0 2.0
2017-Nov-19 21:00N 50°24' W 002°56'1 2.0
2017-Nov-19 20:30N 50°23' W 002°58'1 1.9
2017-Nov-19 20:00N 50°23' W 002°59'1 1.8
2017-Nov-19 19:30N 50°23' W 003°00'1 1.6
2017-Nov-19 19:00N 50°22' W 003°01'1 1.5
2017-Nov-19 18:30N 50°22' W 003°02'1 1.2
2017-Nov-19 18:00N 50°21' W 003°03'0 1.0
2017-Nov-19 17:30N 50°21' W 003°03'0 0.7
2017-Nov-19 17:00N 50°21' W 003°04'0 0.5
2017-Nov-19 16:30N 50°21' W 003°04'0 0.5
2017-Nov-19 16:00N 50°20' W 003°03'0 0.7
2017-Nov-19 15:30N 50°20' W 003°03'0 1.0
2017-Nov-19 15:00N 50°20' W 003°02'1 1.4
2017-Nov-19 14:30N 50°21' W 003°01'1 1.8
2017-Nov-19 14:00N 50°21' W 002°59'1 2.1
2017-Nov-19 13:30N 50°21' W 002°58'1 1.8
2017-Nov-19 13:00N 50°22' W 002°57'4 7.4
2017-Nov-19 12:30N 50°21' W 003°03'611.5
2017-Nov-19 12:00N 50°21' W 003°12'612.0
2017-Nov-19 11:30N 50°22' W 003°21'3 6.0
2017-Nov-19 11:00N 50°23' W 003°25'4 7.8
2017-Nov-19 10:30N 50°19' W 003°26'612.2
2017-Nov-19 10:00N 50°13' W 003°27'714.3
2017-Nov-19 09:31N 50°08' W 003°35'917.0
2017-Nov-19 09:01N 50°04' W 003°46'917.1
2017-Nov-19 08:31N 50°00' W 003°58'917.1
2017-Nov-19 08:00N 49°58' W 004°11'917.3
2017-Nov-19 07:30N 49°56' W 004°24'917.4
2017-Nov-19 07:01N 49°53' W 004°37'917.6
2017-Nov-19 06:31N 49°51' W 004°50'918.2
2017-Nov-19 06:00N 49°49' W 005°04'2418.3
2017-Nov-19 04:43N 49°45' W 005°40'418.2
2017-Nov-19 04:29N 49°44' W 005°46'1518.0
2017-Nov-19 03:38N 49°39' W 006°09'317.8
2017-Nov-19 03:28N 49°39' W 006°13'1417.6
2017-Nov-19 02:41N 49°38' W 006°35'1517.3
2017-Nov-19 01:48N 49°39' W 006°58'717.3
2017-Nov-19 01:25N 49°40' W 007°09'1117.1
2017-Nov-19 00:45N 49°41' W 007°26'816.8
2017-Nov-19 00:15N 49°41' W 007°39'516.7
2017-Nov-18 23:58N 49°41' W 007°46'6215.3
2017-Nov-18 19:53N 49°47' W 009°23'1717.0
2017-Nov-18 18:52N 49°48' W 009°49'1117.3
2017-Nov-18 18:14N 49°49' W 010°06'417.4
2017-Nov-18 18:00N 49°49' W 010°12'  

Dump ship's entire track history